sensor_id;sensor_type;location;lat;lon;timestamp;pressure;altitude;pressure_sealevel;temperature;humidity
26112;BME280;13829;48.990;8.346;2023-05-20T00:02:13;100627.28;;;15.36;70.28
26112;BME280;13829;48.990;8.346;2023-05-20T00:04:40;100619.38;;;15.33;71.82
26112;BME280;13829;48.990;8.346;2023-05-20T00:07:08;100617.78;;;15.16;71.94
26112;BME280;13829;48.990;8.346;2023-05-20T00:09:38;100618.63;;;15.19;71.36
26112;BME280;13829;48.990;8.346;2023-05-20T00:12:05;100610.75;;;15.12;70.32
26112;BME280;13829;48.990;8.346;2023-05-20T00:14:32;100620.50;;;15.10;69.79
26112;BME280;13829;48.990;8.346;2023-05-20T00:16:59;100617.69;;;15.24;73.44
26112;BME280;13829;48.990;8.346;2023-05-20T00:19:26;100616.91;;;15.14;72.39
26112;BME280;13829;48.990;8.346;2023-05-20T00:21:53;100623.97;;;15.12;69.84
26112;BME280;13829;48.990;8.346;2023-05-20T00:24:22;100614.25;;;15.18;67.90
26112;BME280;13829;48.990;8.346;2023-05-20T00:26:50;100618.59;;;15.22;67.87
26112;BME280;13829;48.990;8.346;2023-05-20T00:29:17;100617.72;;;15.23;67.03
26112;BME280;13829;48.990;8.346;2023-05-20T00:31:44;100621.88;;;15.45;66.33
26112;BME280;13829;48.990;8.346;2023-05-20T00:34:11;100615.06;;;15.24;67.13
26112;BME280;13829;48.990;8.346;2023-05-20T00:36:38;100617.72;;;15.21;67.55
26112;BME280;13829;48.990;8.346;2023-05-20T00:39:05;100611.47;;;15.28;67.23
26112;BME280;13829;48.990;8.346;2023-05-20T00:41:32;100612.44;;;15.20;67.99
26112;BME280;13829;48.990;8.346;2023-05-20T00:44:01;100604.38;;;15.30;66.65
26112;BME280;13829;48.990;8.346;2023-05-20T00:46:28;100599.25;;;15.13;67.74
26112;BME280;13829;48.990;8.346;2023-05-20T00:48:56;100605.41;;;15.17;67.32
26112;BME280;13829;48.990;8.346;2023-05-20T00:51:23;100606.28;;;15.18;66.94
26112;BME280;13829;48.990;8.346;2023-05-20T00:53:50;100609.78;;;15.23;67.35
26112;BME280;13829;48.990;8.346;2023-05-20T00:56:18;100613.19;;;15.31;67.28
26112;BME280;13829;48.990;8.346;2023-05-20T00:58:46;100613.94;;;15.44;66.58
26112;BME280;13829;48.990;8.346;2023-05-20T01:01:14;100614.09;;;15.31;67.32
26112;BME280;13829;48.990;8.346;2023-05-20T01:03:41;100605.06;;;15.48;66.66
26112;BME280;13829;48.990;8.346;2023-05-20T01:06:08;100611.34;;;15.39;67.28
26112;BME280;13829;48.990;8.346;2023-05-20T01:08:35;100612.34;;;15.27;67.90
26112;BME280;13829;48.990;8.346;2023-05-20T01:11:08;100610.44;;;15.42;68.01
26112;BME280;13829;48.990;8.346;2023-05-20T01:13:44;100609.53;;;15.44;67.97
26112;BME280;13829;48.990;8.346;2023-05-20T01:16:16;100605.28;;;15.29;68.68
26112;BME280;13829;48.990;8.346;2023-05-20T01:18:46;100606.22;;;15.24;69.22
26112;BME280;13829;48.990;8.346;2023-05-20T01:21:16;100613.19;;;15.34;69.17
26112;BME280;13829;48.990;8.346;2023-05-20T01:23:44;100611.50;;;15.27;69.73
26112;BME280;13829;48.990;8.346;2023-05-20T01:26:11;100610.75;;;15.14;70.47
26112;BME280;13829;48.990;8.346;2023-05-20T01:28:41;100608.06;;;15.15;70.53
26112;BME280;13829;48.990;8.346;2023-05-20T01:31:17;100614.13;;;15.27;70.83
26112;BME280;13829;48.990;8.346;2023-05-20T01:33:51;100611.44;;;15.30;70.71
26112;BME280;13829;48.990;8.346;2023-05-20T01:36:21;100608.91;;;15.21;70.93
26112;BME280;13829;48.990;8.346;2023-05-20T01:38:52;100612.44;;;15.20;70.95
26112;BME280;13829;48.990;8.346;2023-05-20T01:41:20;100609.00;;;15.11;72.00
26112;BME280;13829;48.990;8.346;2023-05-20T01:43:49;100607.34;;;15.03;72.22
26112;BME280;13829;48.990;8.346;2023-05-20T01:46:16;100605.72;;;14.88;73.48
26112;BME280;13829;48.990;8.346;2023-05-20T01:48:43;100603.78;;;15.02;73.45
26112;BME280;13829;48.990;8.346;2023-05-20T01:51:10;100593.31;;;14.88;73.75
26112;BME280;13829;48.990;8.346;2023-05-20T01:53:37;100595.03;;;14.95;73.96
26112;BME280;13829;48.990;8.346;2023-05-20T01:56:06;100602.16;;;14.89;74.03
26112;BME280;13829;48.990;8.346;2023-05-20T01:58:33;100596.00;;;14.90;74.28
26112;BME280;13829;48.990;8.346;2023-05-20T02:01:00;100596.03;;;14.83;74.72
26112;BME280;13829;48.990;8.346;2023-05-20T02:03:27;100593.47;;;14.76;75.55
26112;BME280;13829;48.990;8.346;2023-05-20T02:05:54;100588.94;;;14.86;74.59
26112;BME280;13829;48.990;8.346;2023-05-20T02:08:21;100588.91;;;14.90;75.02
26112;BME280;13829;48.990;8.346;2023-05-20T02:10:48;100591.50;;;14.93;74.29
26112;BME280;13829;48.990;8.346;2023-05-20T02:13:16;100585.16;;;15.13;73.15
26112;BME280;13829;48.990;8.346;2023-05-20T02:15:43;100582.56;;;15.07;73.06
26112;BME280;13829;48.990;8.346;2023-05-20T02:18:10;100594.03;;;15.07;73.14
26112;BME280;13829;48.990;8.346;2023-05-20T02:20:38;100573.69;;;15.09;73.06
26112;BME280;13829;48.990;8.346;2023-05-20T02:23:05;100581.06;;;14.81;74.46
26112;BME280;13829;48.990;8.346;2023-05-20T02:25:33;100572.84;;;15.09;73.19
26112;BME280;13829;48.990;8.346;2023-05-20T02:28:00;100576.41;;;15.03;73.01
26112;BME280;13829;48.990;8.346;2023-05-20T02:30:31;100571.19;;;14.97;73.28
26112;BME280;13829;48.990;8.346;2023-05-20T02:32:58;100565.94;;;14.94;73.43
26112;BME280;13829;48.990;8.346;2023-05-20T02:35:25;100561.72;;;14.73;74.95
26112;BME280;13829;48.990;8.346;2023-05-20T02:37:52;100561.69;;;14.74;74.65
26112;BME280;13829;48.990;8.346;2023-05-20T02:40:19;100564.44;;;14.65;75.22
26112;BME280;13829;48.990;8.346;2023-05-20T02:42:46;100555.41;;;14.86;74.37
26112;BME280;13829;48.990;8.346;2023-05-20T02:45:13;100555.47;;;14.77;75.37
26112;BME280;13829;48.990;8.346;2023-05-20T02:47:42;100549.41;;;14.65;75.82
26112;BME280;13829;48.990;8.346;2023-05-20T02:50:09;100546.72;;;14.73;75.56
26112;BME280;13829;48.990;8.346;2023-05-20T02:52:36;100550.34;;;14.58;76.45
26112;BME280;13829;48.990;8.346;2023-05-20T02:55:05;100553.84;;;14.62;76.48
26112;BME280;13829;48.990;8.346;2023-05-20T02:57:32;100551.19;;;14.65;77.26
26112;BME280;13829;48.990;8.346;2023-05-20T03:00:04;100557.28;;;14.76;76.09
26112;BME280;13829;48.990;8.346;2023-05-20T03:02:31;100551.16;;;14.68;75.86
26112;BME280;13829;48.990;8.346;2023-05-20T03:05:00;100560.78;;;14.78;75.66
26112;BME280;13829;48.990;8.346;2023-05-20T03:07:27;100565.25;;;14.75;74.84
26112;BME280;13829;48.990;8.346;2023-05-20T03:09:54;100561.69;;;14.74;73.44
26112;BME280;13829;48.990;8.346;2023-05-20T03:12:21;100561.78;;;14.63;73.86
26112;BME280;13829;48.990;8.346;2023-05-20T03:14:50;100562.59;;;14.73;72.83
26112;BME280;13829;48.990;8.346;2023-05-20T03:17:19;100569.63;;;14.74;71.93
26112;BME280;13829;48.990;8.346;2023-05-20T03:19:46;100564.53;;;14.49;72.56
26112;BME280;13829;48.990;8.346;2023-05-20T03:22:15;100564.56;;;14.46;73.07
26112;BME280;13829;48.990;8.346;2023-05-20T03:24:42;100578.72;;;14.45;72.59
26112;BME280;13829;48.990;8.346;2023-05-20T03:27:10;100573.28;;;14.61;72.16
26112;BME280;13829;48.990;8.346;2023-05-20T03:29:37;100575.09;;;14.52;71.93
26112;BME280;13829;48.990;8.346;2023-05-20T03:32:04;100573.38;;;14.48;71.96
26112;BME280;13829;48.990;8.346;2023-05-20T03:34:32;100570.88;;;14.30;72.32
26112;BME280;13829;48.990;8.346;2023-05-20T03:36:58;100571.88;;;14.13;74.49
26112;BME280;13829;48.990;8.346;2023-05-20T03:39:27;100578.03;;;14.12;74.09
26112;BME280;13829;48.990;8.346;2023-05-20T03:41:54;100571.88;;;14.13;73.94
26112;BME280;13829;48.990;8.346;2023-05-20T03:44:20;100574.50;;;14.13;73.90
26112;BME280;13829;48.990;8.346;2023-05-20T03:46:47;100574.59;;;13.99;75.56
26112;BME280;13829;48.990;8.346;2023-05-20T03:49:14;100577.25;;;13.98;74.32
26112;BME280;13829;48.990;8.346;2023-05-20T03:51:41;100581.63;;;14.07;74.23
26112;BME280;13829;48.990;8.346;2023-05-20T03:54:08;100578.91;;;14.16;73.36
26112;BME280;13829;48.990;8.346;2023-05-20T03:56:36;100581.59;;;14.11;73.71
26112;BME280;13829;48.990;8.346;2023-05-20T03:59:04;100586.06;;;13.98;73.40
26112;BME280;13829;48.990;8.346;2023-05-20T04:01:30;100594.13;;;13.75;75.48
26112;BME280;13829;48.990;8.346;2023-05-20T04:03:58;100593.13;;;13.98;74.78
26112;BME280;13829;48.990;8.346;2023-05-20T04:06:25;100587.03;;;13.85;75.65
26112;BME280;13829;48.990;8.346;2023-05-20T04:08:52;100590.59;;;13.82;74.87
26112;BME280;13829;48.990;8.346;2023-05-20T04:11:19;100596.72;;;13.84;75.51
26112;BME280;13829;48.990;8.346;2023-05-20T04:13:47;100588.75;;;13.94;74.64
26112;BME280;13829;48.990;8.346;2023-05-20T04:16:14;100586.22;;;13.69;76.12
26112;BME280;13829;48.990;8.346;2023-05-20T04:18:41;100586.16;;;13.88;75.78
26112;BME280;13829;48.990;8.346;2023-05-20T04:21:10;100588.81;;;13.83;75.95
26112;BME280;13829;48.990;8.346;2023-05-20T04:23:37;100587.00;;;13.88;75.53
26112;BME280;13829;48.990;8.346;2023-05-20T04:26:04;100587.91;;;13.89;74.99
26112;BME280;13829;48.990;8.346;2023-05-20T04:28:31;100590.56;;;13.85;75.79
26112;BME280;13829;48.990;8.346;2023-05-20T04:31:00;100582.75;;;13.67;77.10
26112;BME280;13829;48.990;8.346;2023-05-20T04:33:29;100584.41;;;13.82;76.41
26112;BME280;13829;48.990;8.346;2023-05-20T04:35:57;100581.78;;;13.79;75.68
26112;BME280;13829;48.990;8.346;2023-05-20T04:38:26;100587.91;;;13.89;76.19
26112;BME280;13829;48.990;8.346;2023-05-20T04:40:54;100582.63;;;13.85;76.50
26112;BME280;13829;48.990;8.346;2023-05-20T04:43:23;100577.34;;;13.84;77.30
26112;BME280;13829;48.990;8.346;2023-05-20T04:45:50;100583.50;;;13.86;77.06
26112;BME280;13829;48.990;8.346;2023-05-20T04:48:19;100580.84;;;13.88;77.07
26112;BME280;13829;48.990;8.346;2023-05-20T04:50:47;100590.56;;;13.89;76.92
26112;BME280;13829;48.990;8.346;2023-05-20T04:53:14;100582.56;;;13.98;77.37
26112;BME280;13829;48.990;8.346;2023-05-20T04:55:42;100578.13;;;13.98;76.80
26112;BME280;13829;48.990;8.346;2023-05-20T04:58:09;100578.97;;;14.08;75.83
26112;BME280;13829;48.990;8.346;2023-05-20T05:00:40;100574.56;;;14.07;76.25
26112;BME280;13829;48.990;8.346;2023-05-20T05:03:07;100568.31;;;14.16;76.96
26112;BME280;13829;48.990;8.346;2023-05-20T05:05:36;100571.94;;;14.04;76.87
26112;BME280;13829;48.990;8.346;2023-05-20T05:08:04;100565.69;;;14.14;77.14
26112;BME280;13829;48.990;8.346;2023-05-20T05:10:32;100563.13;;;14.02;77.29
26112;BME280;13829;48.990;8.346;2023-05-20T05:12:59;100560.53;;;13.94;77.73
26112;BME280;13829;48.990;8.346;2023-05-20T05:15:26;100550.81;;;13.98;78.99
26112;BME280;13829;48.990;8.346;2023-05-20T05:17:53;100556.09;;;14.02;78.36
26112;BME280;13829;48.990;8.346;2023-05-20T05:20:20;100553.31;;;14.23;78.01
26112;BME280;13829;48.990;8.346;2023-05-20T05:22:48;100546.19;;;14.26;77.05
26112;BME280;13829;48.990;8.346;2023-05-20T05:25:16;100544.47;;;14.22;78.78
26112;BME280;13829;48.990;8.346;2023-05-20T05:27:43;100542.53;;;14.44;77.61
26112;BME280;13829;48.990;8.346;2023-05-20T05:30:10;100531.00;;;14.51;76.29
26112;BME280;13829;48.990;8.346;2023-05-20T05:32:37;100533.59;;;14.56;76.71
26112;BME280;13829;48.990;8.346;2023-05-20T05:35:05;100537.97;;;14.62;76.26
26112;BME280;13829;48.990;8.346;2023-05-20T05:37:32;100539.66;;;14.72;75.14
26112;BME280;13829;48.990;8.346;2023-05-20T05:40:00;100536.00;;;14.87;76.00
26112;BME280;13829;48.990;8.346;2023-05-20T05:42:28;100533.22;;;14.98;75.32
26112;BME280;13829;48.990;8.346;2023-05-20T05:44:55;100523.50;;;14.97;76.00
26112;BME280;13829;48.990;8.346;2023-05-20T05:47:22;100535.72;;;15.10;74.20
26112;BME280;13829;48.990;8.346;2023-05-20T05:49:49;100541.19;;;14.93;75.09
26112;BME280;13829;48.990;8.346;2023-05-20T05:52:16;100536.13;;;14.73;75.91
26112;BME280;13829;48.990;8.346;2023-05-20T05:54:43;100534.16;;;14.94;75.97
26112;BME280;13829;48.990;8.346;2023-05-20T05:57:11;100548.31;;;14.90;76.25
26112;BME280;13829;48.990;8.346;2023-05-20T05:59:38;100542.19;;;14.86;75.92
26112;BME280;13829;48.990;8.346;2023-05-20T06:02:05;100541.97;;;15.03;75.71
26112;BME280;13829;48.990;8.346;2023-05-20T06:04:34;100539.13;;;15.22;74.93
26112;BME280;13829;48.990;8.346;2023-05-20T06:07:01;100531.78;;;15.45;74.39
26112;BME280;13829;48.990;8.346;2023-05-20T06:09:28;100537.31;;;15.24;73.99
26112;BME280;13829;48.990;8.346;2023-05-20T06:11:55;100538.19;;;15.26;73.36
26112;BME280;13829;48.990;8.346;2023-05-20T06:14:23;100545.44;;;15.11;74.06
26112;BME280;13829;48.990;8.346;2023-05-20T06:16:50;100542.91;;;14.99;74.63
26112;BME280;13829;48.990;8.346;2023-05-20T06:19:17;100539.22;;;15.12;75.00
26112;BME280;13829;48.990;8.346;2023-05-20T06:21:44;100540.19;;;15.07;75.06
26112;BME280;13829;48.990;8.346;2023-05-20T06:24:11;100538.47;;;14.99;76.15
26112;BME280;13829;48.990;8.346;2023-05-20T06:26:38;100538.34;;;15.15;75.53
26112;BME280;13829;48.990;8.346;2023-05-20T06:29:04;100524.94;;;15.26;75.81
26112;BME280;13829;48.990;8.346;2023-05-20T06:31:33;100516.25;;;15.80;73.25
26112;BME280;13829;48.990;8.346;2023-05-20T06:34:00;100516.59;;;16.18;71.92
26112;BME280;13829;48.990;8.346;2023-05-20T06:36:27;100514.31;;;16.47;69.18
26112;BME280;13829;48.990;8.346;2023-05-20T06:38:54;100512.75;;;16.84;68.04
26112;BME280;13829;48.990;8.346;2023-05-20T06:41:20;100510.63;;;17.47;66.92
26112;BME280;13829;48.990;8.346;2023-05-20T06:43:47;100508.06;;;17.82;64.99
26112;BME280;13829;48.990;8.346;2023-05-20T06:46:14;100501.13;;;18.50;62.32
26112;BME280;13829;48.990;8.346;2023-05-20T06:48:43;100503.03;;;18.78;61.11
26112;BME280;13829;48.990;8.346;2023-05-20T06:51:09;100508.03;;;18.57;59.56
26112;BME280;13829;48.990;8.346;2023-05-20T06:53:36;100504.53;;;18.19;60.66
26112;BME280;13829;48.990;8.346;2023-05-20T06:56:04;100509.16;;;18.12;62.56
26112;BME280;13829;48.990;8.346;2023-05-20T06:58:32;100507.53;;;19.09;63.39
26112;BME280;13829;48.990;8.346;2023-05-20T07:00:58;100504.38;;;20.12;55.58
26112;BME280;13829;48.990;8.346;2023-05-20T07:03:25;100503.34;;;21.66;52.27
26112;BME280;13829;48.990;8.346;2023-05-20T07:05:54;100492.56;;;22.33;48.56
26112;BME280;13829;48.990;8.346;2023-05-20T07:08:21;100488.38;;;23.29;47.87
26112;BME280;13829;48.990;8.346;2023-05-20T07:10:48;100495.41;;;23.70;44.59
26112;BME280;13829;48.990;8.346;2023-05-20T07:13:16;100478.78;;;24.00;44.73
26112;BME280;13829;48.990;8.346;2023-05-20T07:15:45;100480.09;;;24.61;43.07
26112;BME280;13829;48.990;8.346;2023-05-20T07:18:12;100472.19;;;23.69;44.41
26112;BME280;13829;48.990;8.346;2023-05-20T07:20:39;100474.81;;;24.42;43.15
26112;BME280;13829;48.990;8.346;2023-05-20T07:23:08;100473.75;;;24.29;42.77
26112;BME280;13829;48.990;8.346;2023-05-20T07:25:35;100465.72;;;25.13;41.42
26112;BME280;13829;48.990;8.346;2023-05-20T07:28:02;100460.25;;;24.64;42.15
26112;BME280;13829;48.990;8.346;2023-05-20T07:30:29;100457.09;;;25.40;43.18
26112;BME280;13829;48.990;8.346;2023-05-20T07:32:56;100449.63;;;26.24;40.74
26112;BME280;13829;48.990;8.346;2023-05-20T07:35:22;100463.72;;;26.43;38.77
26112;BME280;13829;48.990;8.346;2023-05-20T07:37:50;100461.84;;;25.35;40.19
26112;BME280;13829;48.990;8.346;2023-05-20T07:40:18;100464.97;;;24.60;43.09
26112;BME280;13829;48.990;8.346;2023-05-20T07:42:45;100474.97;;;22.69;45.98
26112;BME280;13829;48.990;8.346;2023-05-20T07:45:12;100460.19;;;22.39;47.63
26112;BME280;13829;48.990;8.346;2023-05-20T07:47:39;100457.56;;;21.27;50.16
26112;BME280;13829;48.990;8.346;2023-05-20T07:50:07;100451.84;;;20.90;52.32
26112;BME280;13829;48.990;8.346;2023-05-20T07:52:34;100451.38;;;20.79;54.19
26112;BME280;13829;48.990;8.346;2023-05-20T07:55:01;100451.78;;;20.66;55.24
26112;BME280;13829;48.990;8.346;2023-05-20T07:57:29;100446.28;;;20.19;56.33
26112;BME280;13829;48.990;8.346;2023-05-20T07:59:56;100447.28;;;20.16;56.90
26112;BME280;13829;48.990;8.346;2023-05-20T08:02:23;100441.41;;;20.05;57.26
26112;BME280;13829;48.990;8.346;2023-05-20T08:04:50;100439.44;;;20.12;58.80
26112;BME280;13829;48.990;8.346;2023-05-20T08:07:17;100442.38;;;20.54;59.92
26112;BME280;13829;48.990;8.346;2023-05-20T08:09:45;100439.34;;;20.65;56.20
26112;BME280;13829;48.990;8.346;2023-05-20T08:12:11;100437.34;;;20.96;55.88
26112;BME280;13829;48.990;8.346;2023-05-20T08:14:40;100436.94;;;20.83;56.04
26112;BME280;13829;48.990;8.346;2023-05-20T08:17:08;100435.63;;;20.69;55.65
26112;BME280;13829;48.990;8.346;2023-05-20T08:19:35;100439.56;;;20.59;55.93
26112;BME280;13829;48.990;8.346;2023-05-20T08:22:02;100418.09;;;21.10;56.58
26112;BME280;13829;48.990;8.346;2023-05-20T08:24:28;100418.63;;;21.20;54.81
26112;BME280;13829;48.990;8.346;2023-05-20T08:26:56;100405.34;;;21.40;54.38
26112;BME280;13829;48.990;8.346;2023-05-20T08:29:23;100406.47;;;21.34;56.24
26112;BME280;13829;48.990;8.346;2023-05-20T08:31:51;100405.16;;;20.75;57.94
26112;BME280;13829;48.990;8.346;2023-05-20T08:34:18;100402.22;;;20.58;57.30
26112;BME280;13829;48.990;8.346;2023-05-20T08:36:45;100399.53;;;20.58;59.87
26112;BME280;13829;48.990;8.346;2023-05-20T08:39:12;100413.50;;;20.41;58.27
26112;BME280;13829;48.990;8.346;2023-05-20T08:41:39;100401.09;;;20.13;59.17
26112;BME280;13829;48.990;8.346;2023-05-20T08:44:08;100405.00;;;19.76;61.07
26112;BME280;13829;48.990;8.346;2023-05-20T08:46:37;100416.94;;;19.92;61.34
26112;BME280;13829;48.990;8.346;2023-05-20T08:49:06;100405.22;;;20.23;59.29
26112;BME280;13829;48.990;8.346;2023-05-20T08:51:36;100403.25;;;20.53;57.17
26112;BME280;13829;48.990;8.346;2023-05-20T08:54:04;100393.72;;;20.95;56.92
26112;BME280;13829;48.990;8.346;2023-05-20T08:56:32;100393.13;;;21.33;55.50
26112;BME280;13829;48.990;8.346;2023-05-20T08:58:59;100407.84;;;21.45;53.39
26112;BME280;13829;48.990;8.346;2023-05-20T09:01:26;100384.25;;;21.32;54.85
26112;BME280;13829;48.990;8.346;2023-05-20T09:03:53;100383.09;;;21.82;56.06
26112;BME280;13829;48.990;8.346;2023-05-20T09:06:21;100389.50;;;22.01;53.23
26112;BME280;13829;48.990;8.346;2023-05-20T09:08:49;100388.66;;;21.78;52.28
26112;BME280;13829;48.990;8.346;2023-05-20T09:11:16;100380.59;;;22.21;52.97
26112;BME280;13829;48.990;8.346;2023-05-20T09:13:43;100396.78;;;22.40;51.14
26112;BME280;13829;48.990;8.346;2023-05-20T09:16:10;100397.91;;;21.91;53.13
26112;BME280;13829;48.990;8.346;2023-05-20T09:18:38;100396.63;;;21.79;53.18
26112;BME280;13829;48.990;8.346;2023-05-20T09:21:06;100397.22;;;21.86;53.65
26112;BME280;13829;48.990;8.346;2023-05-20T09:23:36;100401.97;;;21.35;54.31
26112;BME280;13829;48.990;8.346;2023-05-20T09:26:03;100397.63;;;21.32;54.62
26112;BME280;13829;48.990;8.346;2023-05-20T09:28:30;100396.78;;;20.84;56.49
26112;BME280;13829;48.990;8.346;2023-05-20T09:30:58;100395.69;;;20.90;57.16
26112;BME280;13829;48.990;8.346;2023-05-20T09:33:27;100399.81;;;20.99;56.74
26112;BME280;13829;48.990;8.346;2023-05-20T09:36:02;100399.53;;;21.07;56.02
26112;BME280;13829;48.990;8.346;2023-05-20T09:38:35;100397.56;;;21.10;56.22
26112;BME280;13829;48.990;8.346;2023-05-20T09:41:08;100398.09;;;21.20;55.59
26112;BME280;13829;48.990;8.346;2023-05-20T09:43:37;100398.34;;;21.14;56.03
26112;BME280;13829;48.990;8.346;2023-05-20T09:46:06;100398.59;;;20.84;56.30
26112;BME280;13829;48.990;8.346;2023-05-20T09:48:35;100395.16;;;20.80;56.60
26112;BME280;13829;48.990;8.346;2023-05-20T09:51:04;100385.25;;;20.84;56.70
26112;BME280;13829;48.990;8.346;2023-05-20T09:53:34;100392.84;;;20.69;56.43
26112;BME280;13829;48.990;8.346;2023-05-20T09:56:01;100380.22;;;20.75;56.50
26112;BME280;13829;48.990;8.346;2023-05-20T09:58:29;100381.41;;;20.66;56.13
26112;BME280;13829;48.990;8.346;2023-05-20T10:00:56;100379.69;;;20.65;56.10
26112;BME280;13829;48.990;8.346;2023-05-20T10:03:24;100390.81;;;20.52;56.83
26112;BME280;13829;48.990;8.346;2023-05-20T10:06:05;100372.19;;;20.98;58.35
26112;BME280;13829;48.990;8.346;2023-05-20T10:08:58;100375.47;;;21.07;55.62
26112;BME280;13829;48.990;8.346;2023-05-20T10:14:39;100383.81;;;21.43;54.75
26112;BME280;13829;48.990;8.346;2023-05-20T10:17:16;100368.25;;;21.53;54.48
26112;BME280;13829;48.990;8.346;2023-05-20T10:19:47;100362.75;;;21.58;53.43
26112;BME280;13829;48.990;8.346;2023-05-20T10:22:25;100360.06;;;21.58;54.51
26112;BME280;13829;48.990;8.346;2023-05-20T10:24:59;100369.41;;;21.90;53.77
26112;BME280;13829;48.990;8.346;2023-05-20T10:27:42;100356.69;;;21.95;52.97
26112;BME280;13829;48.990;8.346;2023-05-20T10:30:15;100350.19;;;21.80;53.20
26112;BME280;13829;48.990;8.346;2023-05-20T10:32:51;100351.53;;;21.70;54.24
26112;BME280;13829;48.990;8.346;2023-05-20T10:35:21;100341.41;;;21.55;54.18
26112;BME280;13829;48.990;8.346;2023-05-20T10:37:51;100342.84;;;21.63;54.75
26112;BME280;13829;48.990;8.346;2023-05-20T10:40:21;100339.16;;;21.67;54.64
26112;BME280;13829;48.990;8.346;2023-05-20T10:42:48;100336.38;;;21.47;54.19
26112;BME280;13829;48.990;8.346;2023-05-20T10:45:27;100333.81;;;21.23;54.92
26112;BME280;13829;48.990;8.346;2023-05-20T10:47:56;100333.22;;;21.15;55.18
26112;BME280;13829;48.990;8.346;2023-05-20T10:50:27;100325.22;;;21.37;57.02
26112;BME280;13829;48.990;8.346;2023-05-20T10:53:01;100335.53;;;21.46;53.71
26112;BME280;13829;48.990;8.346;2023-05-20T10:55:36;100341.31;;;21.35;53.21
26112;BME280;13829;48.990;8.346;2023-05-20T10:58:04;100337.94;;;21.30;53.39
26112;BME280;13829;48.990;8.346;2023-05-20T11:00:34;100332.41;;;21.35;53.98
26112;BME280;13829;48.990;8.346;2023-05-20T11:03:03;100334.22;;;21.57;52.39
26112;BME280;13829;48.990;8.346;2023-05-20T11:05:30;100322.81;;;21.51;51.85
26112;BME280;13829;48.990;8.346;2023-05-20T11:08:01;100321.19;;;21.70;52.26
26112;BME280;13829;48.990;8.346;2023-05-20T11:10:28;100319.34;;;21.72;51.80
26112;BME280;13829;48.990;8.346;2023-05-20T11:12:57;100315.19;;;21.85;51.96
26112;BME280;13829;48.990;8.346;2023-05-20T11:15:24;100299.19;;;22.04;52.62
26112;BME280;13829;48.990;8.346;2023-05-20T11:17:53;100303.94;;;22.18;52.56
26112;BME280;13829;48.990;8.346;2023-05-20T11:20:20;100306.63;;;22.18;51.54
26112;BME280;13829;48.990;8.346;2023-05-20T11:22:49;100307.94;;;22.08;51.69
26112;BME280;13829;48.990;8.346;2023-05-20T11:25:17;100310.28;;;21.95;51.89
26112;BME280;13829;48.990;8.346;2023-05-20T11:27:44;100308.34;;;21.98;51.86
26112;BME280;13829;48.990;8.346;2023-05-20T11:30:14;100289.34;;;22.05;51.66
26112;BME280;13829;48.990;8.346;2023-05-20T11:32:43;100293.50;;;21.91;52.43
26112;BME280;13829;48.990;8.346;2023-05-20T11:35:21;100301.66;;;22.09;52.73
26112;BME280;13829;48.990;8.346;2023-05-20T11:37:54;100286.50;;;22.08;52.26
26112;BME280;13829;48.990;8.346;2023-05-20T11:40:26;100294.00;;;22.20;51.25
26112;BME280;13829;48.990;8.346;2023-05-20T11:42:54;100278.81;;;22.21;50.33
26112;BME280;13829;48.990;8.346;2023-05-20T11:45:24;100281.69;;;22.16;50.90
26112;BME280;13829;48.990;8.346;2023-05-20T11:48:00;100285.38;;;22.13;52.55
26112;BME280;13829;48.990;8.346;2023-05-20T11:50:28;100288.53;;;22.23;50.77
26112;BME280;13829;48.990;8.346;2023-05-20T11:52:57;100291.47;;;21.96;51.41
26112;BME280;13829;48.990;8.346;2023-05-20T11:55:25;100281.50;;;22.00;51.49
26112;BME280;13829;48.990;8.346;2023-05-20T11:57:53;100274.47;;;22.18;52.54
26112;BME280;13829;48.990;8.346;2023-05-20T12:00:23;100275.91;;;22.25;50.95
26112;BME280;13829;48.990;8.346;2023-05-20T12:02:50;100272.44;;;22.23;51.17
26112;BME280;13829;48.990;8.346;2023-05-20T12:05:17;100279.22;;;22.11;51.11
26112;BME280;13829;48.990;8.346;2023-05-20T12:07:44;100272.84;;;22.14;51.14
26112;BME280;13829;48.990;8.346;2023-05-20T12:10:11;100268.69;;;22.27;51.38
26112;BME280;13829;48.990;8.346;2023-05-20T12:12:39;100261.78;;;22.42;50.48
26112;BME280;13829;48.990;8.346;2023-05-20T12:15:07;100258.81;;;22.68;50.29
26112;BME280;13829;48.990;8.346;2023-05-20T12:17:46;100278.72;;;22.62;49.99
26112;BME280;13829;48.990;8.346;2023-05-20T12:20:16;100256.84;;;22.52;50.42
26112;BME280;13829;48.990;8.346;2023-05-20T12:22:44;100261.53;;;22.47;50.44
26112;BME280;13829;48.990;8.346;2023-05-20T12:25:12;100265.31;;;22.81;49.68
26112;BME280;13829;48.990;8.346;2023-05-20T12:27:40;100265.22;;;23.02;50.32
26112;BME280;13829;48.990;8.346;2023-05-20T12:30:09;100261.44;;;23.06;49.79
26112;BME280;13829;48.990;8.346;2023-05-20T12:32:37;100261.38;;;22.88;49.45
26112;BME280;13829;48.990;8.346;2023-05-20T12:35:06;100249.72;;;22.89;50.06
26112;BME280;13829;48.990;8.346;2023-05-20T12:37:33;100245.03;;;23.12;51.03
26112;BME280;13829;48.990;8.346;2023-05-20T12:40:01;100244.53;;;23.04;49.27
26112;BME280;13829;48.990;8.346;2023-05-20T12:42:33;100244.84;;;22.97;49.57
26112;BME280;13829;48.990;8.346;2023-05-20T12:45:00;100248.28;;;22.82;48.79
26112;BME280;13829;48.990;8.346;2023-05-20T12:47:28;100251.91;;;22.81;49.44
26112;BME280;13829;48.990;8.346;2023-05-20T12:49:55;100253.09;;;22.56;50.28
26112;BME280;13829;48.990;8.346;2023-05-20T12:52:24;100251.25;;;22.76;50.51
26112;BME280;13829;48.990;8.346;2023-05-20T12:54:52;100250.88;;;22.84;49.04
26112;BME280;13829;48.990;8.346;2023-05-20T12:57:19;100249.72;;;22.89;49.35
26112;BME280;13829;48.990;8.346;2023-05-20T12:59:47;100240.88;;;22.87;50.15